createdAt,value
2022-12-03T00:01:14.039Z,102341.25
2022-12-03T00:03:40.733Z,102334.25
2022-12-03T00:06:07.693Z,102349.06
2022-12-03T00:08:34.995Z,102331.72
2022-12-03T00:11:01.509Z,102320.34
2022-12-03T00:13:28.031Z,102350.91
2022-12-03T00:15:55.185Z,102346.53
2022-12-03T00:18:21.896Z,102354.38
2022-12-03T00:20:48.523Z,102337.91
2022-12-03T00:23:15.038Z,102329.97
2022-12-03T00:25:41.560Z,102343.22
2022-12-03T00:28:08.067Z,102346.69
2022-12-03T00:30:34.581Z,102338.84
2022-12-03T00:33:01.194Z,102337.16
2022-12-03T00:35:27.692Z,102331.13
2022-12-03T00:37:54.924Z,102340.75
2022-12-03T00:40:21.629Z,102344.19
2022-12-03T00:42:48.134Z,102334.59
2022-12-03T00:45:14.902Z,102335.50
2022-12-03T00:47:41.434Z,102339.88
2022-12-03T00:50:08.562Z,102330.41
2022-12-03T00:52:35.145Z,102313.91
2022-12-03T00:55:01.831Z,102310.34
2022-12-03T00:57:28.382Z,102308.75
2022-12-03T00:59:54.906Z,102320.06
2022-12-03T01:02:21.755Z,102322.66
2022-12-03T01:04:48.407Z,102284.19
2022-12-03T01:07:14.994Z,102311.22
2022-12-03T01:09:41.502Z,102306.03
2022-12-03T01:12:08.194Z,102321.69
2022-12-03T01:14:34.758Z,102305.88
2022-12-03T01:17:01.272Z,102317.28
2022-12-03T01:19:27.903Z,102285.88
2022-12-03T01:21:55.702Z,102294.53
2022-12-03T01:24:22.331Z,102317.19
2022-12-03T01:26:48.812Z,102303.09
2022-12-03T01:29:15.709Z,102318.94
2022-12-03T01:32:01.013Z,102320.63
2022-12-03T01:34:27.861Z,102293.66
2022-12-03T01:36:54.955Z,102309.25
2022-12-03T01:39:21.505Z,102315.47
2022-12-03T01:41:49.933Z,102315.31
2022-12-03T01:44:33.726Z,102325.66
2022-12-03T01:47:04.235Z,102330.09
2022-12-03T01:49:56.478Z,102332.66
2022-12-03T01:52:27.208Z,102330.09
2022-12-03T01:54:57.019Z,102285.50
2022-12-03T01:57:27.655Z,102327.41
2022-12-03T01:59:57.228Z,102323.91
2022-12-03T02:02:29.668Z,102309.09
2022-12-03T02:04:57.094Z,102321.34
2022-12-03T02:07:29.767Z,102318.81
2022-12-03T02:09:58.366Z,102316.19
2022-12-03T02:12:34.269Z,102317.00
2022-12-03T02:15:02.121Z,102306.56
2022-12-03T02:17:29.018Z,102285.56
2022-12-03T02:19:56.341Z,102315.19
2022-12-03T02:22:43.510Z,102317.00
2022-12-03T02:25:19.662Z,102324.75
2022-12-03T02:27:47.151Z,102304.78
2022-12-03T02:30:18.270Z,102302.06
2022-12-03T02:32:45.134Z,102312.63
2022-12-03T02:35:20.949Z,102322.09
2022-12-03T02:37:50.831Z,102315.13
2022-12-03T02:40:21.764Z,102302.09
2022-12-03T02:42:50.719Z,102278.50
2022-12-03T02:45:26.971Z,102322.03
2022-12-03T02:48:03.836Z,102282.06
2022-12-03T02:50:34.057Z,102259.41
2022-12-03T02:53:05.667Z,102303.03
2022-12-03T02:55:37.096Z,102302.97
2022-12-03T02:58:05.007Z,102270.78
2022-12-03T03:00:31.722Z,102279.66
2022-12-03T03:02:58.749Z,102297.03
2022-12-03T03:05:25.534Z,102283.97
2022-12-03T03:07:52.190Z,102297.91
2022-12-03T03:10:22.984Z,102303.97
2022-12-03T03:12:51.240Z,102278.84
2022-12-03T03:15:18.045Z,102278.06
2022-12-03T03:17:44.679Z,102284.97
2022-12-03T03:20:11.969Z,102273.63
2022-12-03T03:22:40.654Z,102282.41
2022-12-03T03:25:10.915Z,102281.41
2022-12-03T03:27:38.944Z,102254.50
2022-12-03T03:30:06.786Z,102243.91
2022-12-03T03:32:33.915Z,102284.09
2022-12-03T03:35:00.890Z,102282.41
2022-12-03T03:37:28.494Z,102272.03
2022-12-03T03:39:55.619Z,102266.72
2022-12-03T03:42:22.896Z,102265.03
2022-12-03T03:44:49.775Z,102238.03
2022-12-03T03:47:18.003Z,102275.50
2022-12-03T03:49:44.896Z,102263.44
2022-12-03T03:52:11.911Z,102230.31
2022-12-03T03:54:39.482Z,102233.72
2022-12-03T03:57:06.135Z,102262.63
2022-12-03T03:59:32.775Z,102252.94
2022-12-03T04:01:59.347Z,102253.88
2022-12-03T04:04:27.427Z,102208.53
2022-12-03T04:06:54.012Z,102246.97
2022-12-03T04:09:20.514Z,102258.25
2022-12-03T04:12:05.310Z,102251.34
2022-12-03T04:14:31.812Z,102238.31
2022-12-03T04:16:58.479Z,102250.47
2022-12-03T04:19:25.060Z,102247.84
2022-12-03T04:22:10.121Z,102245.31
2022-12-03T04:24:36.779Z,102246.19
2022-12-03T04:27:21.667Z,102242.66
2022-12-03T04:29:48.296Z,102253.88
2022-12-03T04:32:33.500Z,102255.66
2022-12-03T04:35:18.920Z,102233.00
2022-12-03T04:37:45.478Z,102228.69
2022-12-03T04:40:31.019Z,102240.03
2022-12-03T04:42:57.619Z,102240.03
2022-12-03T04:45:24.253Z,102238.28
2022-12-03T04:47:50.810Z,102256.44
2022-12-03T04:50:17.307Z,102239.84
2022-12-03T04:52:43.919Z,102246.03
2022-12-03T04:55:10.652Z,102230.31
2022-12-03T04:57:37.150Z,102227.00
2022-12-03T05:00:05.478Z,102236.63
2022-12-03T05:02:32.033Z,102225.28
2022-12-03T05:04:58.623Z,102188.56
2022-12-03T05:07:25.196Z,102219.25
2022-12-03T05:09:51.848Z,102234.00
2022-12-03T05:12:18.346Z,102224.38
2022-12-03T05:14:44.829Z,102225.22
2022-12-03T05:17:11.498Z,102201.66
2022-12-03T05:19:56.520Z,102203.44
2022-12-03T05:22:23.023Z,102211.41
2022-12-03T05:24:49.540Z,102211.47
2022-12-03T05:27:20.285Z,102211.50
2022-12-03T05:29:50.141Z,102216.63
2022-12-03T05:32:16.724Z,102188.75
2022-12-03T05:34:43.229Z,102209.75
2022-12-03T05:37:09.819Z,102201.06
2022-12-03T05:39:36.514Z,102198.41
2022-12-03T05:42:22.137Z,102205.44
2022-12-03T05:44:48.630Z,102202.00
2022-12-03T05:47:15.139Z,102192.38
2022-12-03T05:49:41.751Z,102188.97
2022-12-03T05:52:08.394Z,102169.84
2022-12-03T05:54:34.936Z,102192.53
2022-12-03T05:57:01.445Z,102174.31
2022-12-03T05:59:28.064Z,102189.03
2022-12-03T06:01:54.672Z,102189.09
2022-12-03T06:04:21.187Z,102145.50
2022-12-03T06:06:47.715Z,102169.06
2022-12-03T06:09:14.221Z,102183.88
2022-12-03T06:11:41.340Z,102172.63
2022-12-03T06:14:08.207Z,102159.50
2022-12-03T06:16:34.799Z,102157.88
2022-12-03T06:19:01.381Z,102165.75
2022-12-03T06:21:27.869Z,102137.09
2022-12-03T06:23:54.364Z,102155.44
2022-12-03T06:26:20.893Z,102156.28
2022-12-03T06:28:49.134Z,102159.91
2022-12-03T06:31:15.708Z,102156.44
2022-12-03T06:33:42.347Z,102159.81
2022-12-03T06:36:09.212Z,102154.75
2022-12-03T06:38:35.721Z,102167.78
2022-12-03T06:41:02.224Z,102165.22
2022-12-03T06:43:28.849Z,102151.31
2022-12-03T06:45:55.335Z,102168.72
2022-12-03T06:48:22.033Z,102135.63
2022-12-03T06:50:48.560Z,102137.38
2022-12-03T06:53:15.061Z,102127.81
2022-12-03T06:55:41.807Z,102152.25
2022-12-03T06:58:08.315Z,102153.94
2022-12-03T07:00:34.843Z,102154.91
2022-12-03T07:03:01.445Z,102158.31
2022-12-03T07:05:28.127Z,102106.03
2022-12-03T07:07:55.505Z,102106.91
2022-12-03T07:10:22.499Z,102140.97
2022-12-03T07:12:49.024Z,102129.53
2022-12-03T07:15:15.842Z,102145.31
2022-12-03T07:17:42.352Z,102140.00
2022-12-03T07:20:10.095Z,102150.41
2022-12-03T07:22:36.648Z,102132.09
2022-12-03T07:25:03.381Z,102134.81
2022-12-03T07:27:29.866Z,102128.63
2022-12-03T07:29:56.400Z,102145.91
2022-12-03T07:32:23.214Z,102130.19
2022-12-03T07:34:49.692Z,102122.34
2022-12-03T07:37:21.411Z,102138.91
2022-12-03T07:39:49.643Z,102129.38
2022-12-03T07:42:16.162Z,102125.88
2022-12-03T07:44:42.676Z,102137.16
2022-12-03T07:47:09.233Z,102128.50
2022-12-03T07:49:36.125Z,102110.13
2022-12-03T07:52:02.650Z,102137.22
2022-12-03T07:54:29.164Z,102124.19
2022-12-03T07:57:01.155Z,102113.66
2022-12-03T07:59:28.876Z,102133.78
2022-12-03T08:01:55.488Z,102116.47
2022-12-03T08:04:22.193Z,102129.59
2022-12-03T08:06:49.026Z,102121.78
2022-12-03T08:09:16.362Z,102117.41
2022-12-03T08:11:45.196Z,102114.06
2022-12-03T08:14:13.636Z,102100.06
2022-12-03T08:16:41.915Z,102126.19
2022-12-03T08:19:13.466Z,102121.91
2022-12-03T08:21:41.051Z,102087.97
2022-12-03T08:24:16.553Z,102120.25
2022-12-03T08:26:45.127Z,102118.56
2022-12-03T08:29:17.982Z,102105.47
2022-12-03T08:31:48.765Z,102109.81
2022-12-03T08:34:17.774Z,102086.44
2022-12-03T08:36:45.195Z,102090.00
2022-12-03T08:39:30.494Z,102107.50
2022-12-03T08:42:27.289Z,102087.38
2022-12-03T08:44:55.515Z,102109.28
2022-12-03T08:47:24.401Z,102105.03
2022-12-03T08:50:17.980Z,102105.06
2022-12-03T08:52:44.560Z,102080.69
2022-12-03T08:55:33.910Z,102097.41
2022-12-03T08:58:00.538Z,102092.28
2022-12-03T09:00:27.051Z,102063.56
2022-12-03T09:02:59.493Z,102082.88
2022-12-03T09:05:30.057Z,102086.38
2022-12-03T09:07:56.664Z,102067.28
2022-12-03T09:10:23.391Z,102029.88
2022-12-03T09:12:49.967Z,102049.94
2022-12-03T09:15:16.529Z,102072.66
2022-12-03T09:17:43.039Z,102071.00
2022-12-03T09:20:10.001Z,102034.44
2022-12-03T09:22:36.775Z,102057.22
2022-12-03T09:25:03.713Z,102072.91
2022-12-03T09:27:30.227Z,102046.88
2022-12-03T09:29:56.851Z,102064.38
2022-12-03T09:32:24.612Z,102059.28
2022-12-03T09:34:51.792Z,102064.59
2022-12-03T09:37:18.677Z,102035.88
2022-12-03T09:39:45.192Z,102032.56
2022-12-03T09:42:12.023Z,102073.41
2022-12-03T09:44:38.972Z,102044.88
2022-12-03T09:47:06.788Z,102055.34
2022-12-03T09:49:36.989Z,102063.22
2022-12-03T09:52:05.731Z,102034.66
2022-12-03T09:54:33.173Z,102045.94
2022-12-03T09:57:02.676Z,102027.72
2022-12-03T09:59:34.709Z,102045.25
2022-12-03T10:02:02.738Z,102053.97
2022-12-03T10:04:29.980Z,102016.56
2022-12-03T10:06:58.272Z,102041.03
2022-12-03T10:09:28.231Z,102053.19
2022-12-03T10:11:57.211Z,102019.47
2022-12-03T10:14:24.012Z,101993.41
2022-12-03T10:16:51.003Z,102016.97
2022-12-03T10:19:27.811Z,102006.69
2022-12-03T10:21:55.842Z,102021.53
2022-12-03T10:24:22.384Z,102040.81
2022-12-03T10:26:51.244Z,102014.84
2022-12-03T10:29:20.594Z,102036.63
2022-12-03T10:31:56.203Z,101999.41
2022-12-03T10:34:41.060Z,102009.13
2022-12-03T10:37:12.273Z,102014.41
2022-12-03T10:39:58.960Z,102015.34
2022-12-03T10:42:28.648Z,102008.44
2022-12-03T10:45:18.278Z,101995.47
2022-12-03T10:48:12.190Z,102011.16
2022-12-03T10:50:53.574Z,101997.38
2022-12-03T10:53:22.761Z,102006.06
2022-12-03T10:55:51.751Z,101998.34
2022-12-03T10:58:18.209Z,102002.66
2022-12-03T11:00:45.211Z,101981.00
2022-12-03T11:03:29.562Z,101973.31
2022-12-03T11:05:57.855Z,101988.06
2022-12-03T11:08:27.680Z,101960.34
2022-12-03T11:11:03.961Z,101976.81
2022-12-03T11:13:33.442Z,101968.19
2022-12-03T11:16:02.423Z,101967.38
2022-12-03T11:18:37.695Z,101970.81
2022-12-03T11:21:14.099Z,101943.03
2022-12-03T11:23:46.610Z,101965.63
2022-12-03T11:26:19.878Z,101932.63
2022-12-03T11:28:46.670Z,101955.22
2022-12-03T11:31:47.649Z,101956.09
2022-12-03T11:34:20.632Z,101950.09
2022-12-03T11:37:12.144Z,101938.84
2022-12-03T11:39:44.754Z,101933.72
2022-12-03T11:42:26.523Z,101935.44
2022-12-03T11:45:05.490Z,101926.81
2022-12-03T11:47:46.942Z,101912.97
2022-12-03T11:50:23.375Z,101919.09
2022-12-03T11:52:55.491Z,101913.00
2022-12-03T11:55:37.369Z,101919.13
2022-12-03T11:58:23.571Z,101913.06
2022-12-03T12:00:52.066Z,101917.41
2022-12-03T12:03:33.488Z,101890.53
2022-12-03T12:06:00.265Z,101906.16
2022-12-03T12:08:26.781Z,101900.97
2022-12-03T12:10:53.308Z,101899.25
2022-12-03T12:13:49.511Z,101861.09
2022-12-03T12:16:42.889Z,101887.16
2022-12-03T12:19:36.501Z,101888.88
2022-12-03T12:22:14.272Z,101883.72
2022-12-03T12:24:41.328Z,101882.00
2022-12-03T12:27:09.133Z,101868.97
2022-12-03T12:29:37.496Z,101868.09
2022-12-03T12:32:10.696Z,101873.34
2022-12-03T12:34:38.361Z,101860.31
2022-12-03T12:37:09.924Z,101836.94
2022-12-03T12:39:36.712Z,101849.91
2022-12-03T12:42:24.383Z,101842.06
2022-12-03T12:44:52.212Z,101851.59
2022-12-03T12:47:18.809Z,101857.69
2022-12-03T12:49:51.489Z,101831.59
2022-12-03T12:52:18.325Z,101849.81
2022-12-03T12:54:44.896Z,101850.69
2022-12-03T12:57:20.583Z,101838.56
2022-12-03T12:59:47.311Z,101838.53
2022-12-03T13:02:37.105Z,101833.38
2022-12-03T13:05:04.430Z,101817.72
2022-12-03T13:07:31.541Z,101836.78
2022-12-03T13:10:00.209Z,101831.59
2022-12-03T13:12:27.083Z,101816.00
2022-12-03T13:14:58.652Z,101841.16
2022-12-03T13:17:26.074Z,101830.78
2022-12-03T13:20:03.631Z,101825.59
2022-12-03T13:22:31.873Z,101800.47
2022-12-03T13:25:38.320Z,101824.78
2022-12-03T13:28:08.072Z,101779.66
2022-12-03T13:30:34.578Z,101778.81
2022-12-03T13:33:29.328Z,101777.09
2022-12-03T13:35:56.465Z,101801.38
2022-12-03T13:38:25.871Z,101812.69
2022-12-03T13:41:01.409Z,101805.75
2022-12-03T13:43:32.753Z,101804.06
2022-12-03T13:46:00.142Z,101779.78
2022-12-03T13:48:34.133Z,101791.06
2022-12-03T13:51:11.599Z,101793.66
2022-12-03T13:53:40.587Z,101750.25
2022-12-03T13:56:28.569Z,101751.13
2022-12-03T13:58:57.337Z,101800.56
2022-12-03T14:01:23.928Z,101786.75
2022-12-03T14:03:50.634Z,101757.28
2022-12-03T14:06:17.155Z,101769.44
2022-12-03T14:08:43.955Z,101782.41
2022-12-03T14:11:30.680Z,101785.00
2022-12-03T14:13:57.190Z,101778.91
2022-12-03T14:16:23.741Z,101767.63
2022-12-03T14:18:50.361Z,101777.19
2022-12-03T14:21:16.862Z,101783.25
2022-12-03T14:23:43.845Z,101765.94
2022-12-03T14:26:10.356Z,101747.72
2022-12-03T14:28:36.942Z,101770.28
2022-12-03T14:31:03.448Z,101772.84
2022-12-03T14:33:29.948Z,101755.50
2022-12-03T14:35:57.451Z,101772.88
2022-12-03T14:38:24.005Z,101764.19
2022-12-03T14:40:50.532Z,101741.63
2022-12-03T14:43:17.026Z,101739.03
2022-12-03T14:45:43.699Z,101752.91
2022-12-03T14:48:10.176Z,101748.59
2022-12-03T14:50:36.768Z,101765.88
2022-12-03T14:53:03.346Z,101758.06
2022-12-03T14:55:29.856Z,101747.63
2022-12-03T14:57:56.389Z,101758.91
2022-12-03T15:00:22.887Z,101745.88
2022-12-03T15:02:49.464Z,101720.75
2022-12-03T15:05:15.996Z,101758.00
2022-12-03T15:07:42.848Z,101755.41
2022-12-03T15:10:09.854Z,101758.81
2022-12-03T15:12:36.345Z,101748.41
2022-12-03T15:15:02.990Z,101755.38
2022-12-03T15:17:31.957Z,101774.41
2022-12-03T15:19:58.823Z,101717.16
2022-12-03T15:22:25.350Z,101754.50
2022-12-03T15:24:51.843Z,101736.31
2022-12-03T15:27:18.401Z,101736.25
2022-12-03T15:29:44.889Z,101751.88
2022-12-03T15:32:11.392Z,101729.34
2022-12-03T15:34:37.963Z,101743.25
2022-12-03T15:37:04.488Z,101719.84
2022-12-03T15:39:32.940Z,101730.22
2022-12-03T15:41:59.471Z,101748.41
2022-12-03T15:44:25.978Z,101746.69
2022-12-03T15:46:52.483Z,101742.34
2022-12-03T15:49:20.126Z,101734.50
2022-12-03T15:51:46.660Z,101724.06
2022-12-03T15:54:13.253Z,101730.97
2022-12-03T15:56:39.784Z,101744.84
2022-12-03T15:59:06.296Z,101727.50
2022-12-03T16:01:33.028Z,101717.09
2022-12-03T16:03:59.648Z,101752.63
2022-12-03T16:06:26.160Z,101759.53
2022-12-03T16:08:52.943Z,101744.84
2022-12-03T16:11:19.438Z,101727.47
2022-12-03T16:13:45.979Z,101752.63
2022-12-03T16:16:12.651Z,101743.09
2022-12-03T16:18:39.235Z,101751.75
2022-12-03T16:21:05.796Z,101748.28
2022-12-03T16:23:32.289Z,101741.34
2022-12-03T16:25:58.786Z,101741.31
2022-12-03T16:28:25.313Z,101743.06
2022-12-03T16:30:51.985Z,101732.63
2022-12-03T16:33:22.641Z,101720.50
2022-12-03T16:35:53.695Z,101740.44
2022-12-03T16:38:20.199Z,101730.88
2022-12-03T16:40:46.734Z,101749.09
2022-12-03T16:43:13.399Z,101741.28
2022-12-03T16:45:42.486Z,101743.00
2022-12-03T16:48:09.080Z,101716.97
2022-12-03T16:50:37.631Z,101725.63
2022-12-03T16:53:04.286Z,101746.47
2022-12-03T16:55:30.919Z,101749.91
2022-12-03T16:57:57.459Z,101727.31
2022-12-03T17:00:25.864Z,101740.34
2022-12-03T17:02:52.444Z,101755.09
2022-12-03T17:05:19.038Z,101755.94
2022-12-03T17:07:45.663Z,101761.94
2022-12-03T17:10:12.321Z,101742.91
2022-12-03T17:13:07.538Z,101750.72
2022-12-03T17:15:25.387Z,101760.22
2022-12-03T17:17:51.961Z,101741.16
2022-12-03T17:20:18.607Z,101744.63
2022-12-03T17:22:45.098Z,101749.84
2022-12-03T17:25:11.762Z,101751.53
2022-12-03T17:27:43.474Z,101745.47
2022-12-03T17:30:12.647Z,101752.41
2022-12-03T17:32:39.679Z,101743.75
2022-12-03T17:35:06.677Z,101724.63
2022-12-03T17:37:33.699Z,101747.19
2022-12-03T17:40:00.421Z,101738.56
2022-12-03T17:42:26.977Z,101749.78
2022-12-03T17:44:53.526Z,101745.44
2022-12-03T17:47:20.040Z,101735.88
2022-12-03T17:49:46.613Z,101737.63
2022-12-03T17:52:13.141Z,101747.16
2022-12-03T17:55:08.247Z,101742.81
2022-12-03T17:57:41.381Z,101700.28
2022-12-03T18:00:08.922Z,101711.63
2022-12-03T18:02:35.425Z,101734.13
2022-12-03T18:05:02.085Z,101722.00
2022-12-03T18:07:28.701Z,101720.31
2022-12-03T18:09:55.595Z,101737.63
2022-12-03T18:12:22.262Z,101709.91
2022-12-03T18:14:48.764Z,101729.81
2022-12-03T18:17:15.291Z,101724.63
2022-12-03T18:19:41.765Z,101734.19
2022-12-03T18:22:08.443Z,101723.78
2022-12-03T18:24:35.152Z,101723.78
2022-12-03T18:27:01.673Z,101730.69
2022-12-03T18:29:28.190Z,101695.16
2022-12-03T18:31:54.855Z,101685.56
2022-12-03T18:34:21.461Z,101710.75
2022-12-03T18:36:49.406Z,101709.91
2022-12-03T18:39:36.692Z,101721.13
2022-12-03T18:42:17.311Z,101701.16
2022-12-03T18:44:49.435Z,101712.50
2022-12-03T18:47:19.524Z,101709.84
2022-12-03T18:49:46.243Z,101713.28
2022-12-03T18:52:15.148Z,101712.44
2022-12-03T18:54:42.150Z,101713.31
2022-12-03T18:57:09.017Z,101710.69
2022-12-03T18:59:35.540Z,101702.06
2022-12-03T19:02:02.226Z,101674.28
2022-12-03T19:04:28.771Z,101712.44
2022-12-03T19:06:55.419Z,101678.56
2022-12-03T19:09:22.006Z,101708.94
2022-12-03T19:11:48.638Z,101697.69
2022-12-03T19:14:15.399Z,101695.91
2022-12-03T19:16:42.445Z,101678.56
2022-12-03T19:19:09.697Z,101703.72
2022-12-03T19:21:36.910Z,101693.31
2022-12-03T19:24:23.703Z,101702.88
2022-12-03T19:26:54.510Z,101704.47
2022-12-03T19:29:24.111Z,101688.94
2022-12-03T19:31:51.851Z,101670.69
2022-12-03T19:34:18.564Z,101688.84
2022-12-03T19:36:45.186Z,101700.13
2022-12-03T19:39:11.796Z,101697.50
2022-12-03T19:41:39.287Z,101698.34
2022-12-03T19:44:10.698Z,101674.94
2022-12-03T19:46:37.542Z,101702.69
2022-12-03T19:49:04.897Z,101692.31
2022-12-03T19:51:35.154Z,101703.53
2022-12-03T19:54:04.422Z,101692.31
2022-12-03T19:56:31.328Z,101689.66
2022-12-03T19:58:58.682Z,101694.91
2022-12-03T20:01:28.610Z,101698.31
2022-12-03T20:03:56.997Z,101699.16
2022-12-03T20:06:26.879Z,101691.31
2022-12-03T20:08:58.507Z,101692.16
2022-12-03T20:11:30.354Z,101679.16
2022-12-03T20:13:59.520Z,101653.13
2022-12-03T20:16:28.005Z,101704.31
2022-12-03T20:19:03.243Z,101691.31
2022-12-03T20:21:31.889Z,101705.19
2022-12-03T20:23:58.771Z,101661.78
2022-12-03T20:26:25.395Z,101686.13
2022-12-03T20:28:54.959Z,101695.69
2022-12-03T20:31:23.682Z,101680.09
2022-12-03T20:33:52.435Z,101677.56
2022-12-03T20:36:23.473Z,101680.16
2022-12-03T20:38:55.104Z,101670.63
2022-12-03T20:41:22.061Z,101654.97
2022-12-03T20:43:48.961Z,101668.03
2022-12-03T20:46:25.615Z,101677.53
2022-12-03T20:48:54.094Z,101654.94
2022-12-03T20:51:23.237Z,101682.69
2022-12-03T20:53:50.036Z,101687.88
2022-12-03T20:56:20.320Z,101692.16
2022-12-03T20:58:50.552Z,101690.38
2022-12-03T21:01:19.982Z,101688.63
2022-12-03T21:03:47.414Z,101686.00
2022-12-03T21:06:14.909Z,101690.28
2022-12-03T21:08:42.791Z,101677.19
2022-12-03T21:11:17.107Z,101682.44
2022-12-03T21:13:44.341Z,101683.19
2022-12-03T21:16:39.739Z,101684.06
2022-12-03T21:19:11.396Z,101684.91
2022-12-03T21:21:37.921Z,101677.88
2022-12-03T21:24:04.683Z,101631.00
2022-12-03T21:26:31.366Z,101683.91
2022-12-03T21:28:57.872Z,101678.66
2022-12-03T21:31:26.626Z,101658.66
2022-12-03T21:33:54.653Z,101675.19
2022-12-03T21:36:21.912Z,101669.16
2022-12-03T21:38:48.699Z,101663.03
2022-12-03T21:41:16.029Z,101676.78
2022-12-03T21:43:43.570Z,101671.56
2022-12-03T21:47:10.838Z,101644.69
2022-12-03T21:49:01.711Z,101662.88
2022-12-03T21:51:28.244Z,101674.06
2022-12-03T21:53:54.866Z,101655.00
2022-12-03T21:56:21.547Z,101660.19
2022-12-03T21:58:48.070Z,101653.22
2022-12-03T22:01:19.485Z,101664.41
2022-12-03T22:03:46.674Z,101660.09
2022-12-03T22:06:14.015Z,101662.59
2022-12-03T22:08:41.439Z,101648.72
2022-12-03T22:11:17.818Z,101659.94
2022-12-03T22:13:45.002Z,101667.66
2022-12-03T22:16:19.597Z,101664.19
2022-12-03T22:18:46.625Z,101664.97
2022-12-03T22:21:16.049Z,101669.25
2022-12-03T22:23:42.692Z,101665.72
2022-12-03T22:26:12.787Z,101655.28
2022-12-03T22:28:43.098Z,101653.50
2022-12-03T22:31:10.133Z,101628.31
2022-12-03T22:33:37.126Z,101662.97
2022-12-03T22:36:13.391Z,101663.78
2022-12-03T22:38:44.922Z,101640.25
2022-12-03T22:41:13.313Z,101669.75
2022-12-03T22:43:40.674Z,101648.84
2022-12-03T22:46:10.452Z,101659.38
2022-12-03T22:48:37.130Z,101662.78
2022-12-03T22:51:05.056Z,101655.94
2022-12-03T22:53:31.535Z,101642.13
2022-12-03T22:56:00.222Z,101646.63
2022-12-03T22:58:28.637Z,101598.88
2022-12-03T23:01:01.270Z,101651.00
2022-12-03T23:03:29.754Z,101646.72
2022-12-03T23:05:56.591Z,101646.91
2022-12-03T23:08:23.282Z,101644.38
2022-12-03T23:10:52.117Z,101626.16
2022-12-03T23:13:19.619Z,101636.78
2022-12-03T23:15:51.826Z,101627.28
2022-12-03T23:18:19.917Z,101624.88
2022-12-03T23:20:49.092Z,101612.75
2022-12-03T23:23:16.788Z,101623.25
2022-12-03T23:25:43.317Z,101603.25
2022-12-03T23:28:10.611Z,101600.75
2022-12-03T23:30:38.819Z,101625.94
2022-12-03T23:33:06.406Z,101621.69
2022-12-03T23:35:33.526Z,101609.63
2022-12-03T23:38:00.155Z,101623.47
2022-12-03T23:40:26.695Z,101611.38
2022-12-03T23:42:53.197Z,101604.47
2022-12-03T23:45:19.690Z,101612.22
2022-12-03T23:47:46.210Z,101601.94
2022-12-03T23:50:12.993Z,101621.84
2022-12-03T23:52:39.546Z,101613.22
2022-12-03T23:55:06.519Z,101607.22
2022-12-03T23:57:34.469Z,101599.47
